Terminal Aerodrome Forecast
Issued by NWS

Home | Current Version | Previous Version | Text Only | Print | Product List | Glossary On
Versions: 1 2 3 4 5 6 7 8 9 10 11 12 13
160
FTUS43 KOAX 051141
TAFBFF
TAF
KBFF 051141Z 0512/0612 27006KT P6SM BKN100 BKN200
     FM051500 29013G21KT P6SM BKN250
     FM051800 31023G35KT P6SM SCT080 BKN150
     FM052300 32015G21KT P6SM BKN100
     FM060400 30011KT P6SM SKC=

USA.gov is the U.S. government's official web portal to all federal, state and local government web resources and services.